sensor_id;sensor_type;location;lat;lon;timestamp;temperature;humidity
51801;DHT22;37855;53.204;6.568;2023-01-28T00:00:30;2.30;68.80
51801;DHT22;37855;53.204;6.568;2023-01-28T00:02:56;2.40;68.70
51801;DHT22;37855;53.204;6.568;2023-01-28T00:05:22;2.50;68.40
51801;DHT22;37855;53.204;6.568;2023-01-28T00:07:54;2.50;68.30
51801;DHT22;37855;53.204;6.568;2023-01-28T00:10:19;2.50;68.40
51801;DHT22;37855;53.204;6.568;2023-01-28T00:12:45;2.50;68.10
51801;DHT22;37855;53.204;6.568;2023-01-28T00:15:11;2.50;68.50
51801;DHT22;37855;53.204;6.568;2023-01-28T00:17:37;2.50;68.50
51801;DHT22;37855;53.204;6.568;2023-01-28T00:20:04;2.50;68.10
51801;DHT22;37855;53.204;6.568;2023-01-28T00:22:31;2.50;68.50
51801;DHT22;37855;53.204;6.568;2023-01-28T00:24:57;2.50;68.90
51801;DHT22;37855;53.204;6.568;2023-01-28T00:27:23;2.60;68.90
51801;DHT22;37855;53.204;6.568;2023-01-28T00:29:48;2.60;69.00
51801;DHT22;37855;53.204;6.568;2023-01-28T00:32:14;2.70;68.80
51801;DHT22;37855;53.204;6.568;2023-01-28T00:34:40;2.70;68.80
51801;DHT22;37855;53.204;6.568;2023-01-28T00:37:05;2.70;68.90
51801;DHT22;37855;53.204;6.568;2023-01-28T00:39:31;2.70;68.50
51801;DHT22;37855;53.204;6.568;2023-01-28T00:41:57;2.70;68.40
51801;DHT22;37855;53.204;6.568;2023-01-28T00:44:23;2.60;68.70
51801;DHT22;37855;53.204;6.568;2023-01-28T00:46:48;2.60;68.00
51801;DHT22;37855;53.204;6.568;2023-01-28T00:49:14;2.60;68.20
51801;DHT22;37855;53.204;6.568;2023-01-28T00:51:40;2.70;68.00
51801;DHT22;37855;53.204;6.568;2023-01-28T00:54:06;2.70;67.60
51801;DHT22;37855;53.204;6.568;2023-01-28T00:56:31;2.70;67.50
51801;DHT22;37855;53.204;6.568;2023-01-28T00:58:57;2.70;67.50
51801;DHT22;37855;53.204;6.568;2023-01-28T01:01:25;2.70;67.50
51801;DHT22;37855;53.204;6.568;2023-01-28T01:03:52;2.80;66.90
51801;DHT22;37855;53.204;6.568;2023-01-28T01:06:32;2.70;66.80
51801;DHT22;37855;53.204;6.568;2023-01-28T01:09:00;2.70;67.30
51801;DHT22;37855;53.204;6.568;2023-01-28T01:11:26;2.70;67.10
51801;DHT22;37855;53.204;6.568;2023-01-28T01:13:54;2.80;66.90
51801;DHT22;37855;53.204;6.568;2023-01-28T01:16:27;2.80;66.80
51801;DHT22;37855;53.204;6.568;2023-01-28T01:18:54;2.60;66.90
51801;DHT22;37855;53.204;6.568;2023-01-28T01:21:23;2.50;67.30
51801;DHT22;37855;53.204;6.568;2023-01-28T01:23:50;2.50;67.60
51801;DHT22;37855;53.204;6.568;2023-01-28T01:26:16;2.50;67.90
51801;DHT22;37855;53.204;6.568;2023-01-28T01:28:42;2.60;68.10
51801;DHT22;37855;53.204;6.568;2023-01-28T01:31:15;2.60;68.00
51801;DHT22;37855;53.204;6.568;2023-01-28T01:33:47;2.60;68.10
51801;DHT22;37855;53.204;6.568;2023-01-28T01:36:15;2.70;67.30
51801;DHT22;37855;53.204;6.568;2023-01-28T01:38:42;2.80;66.80
51801;DHT22;37855;53.204;6.568;2023-01-28T01:41:09;2.80;66.30
51801;DHT22;37855;53.204;6.568;2023-01-28T01:43:53;2.70;66.50
51801;DHT22;37855;53.204;6.568;2023-01-28T01:46:35;2.60;66.70
51801;DHT22;37855;53.204;6.568;2023-01-28T01:49:27;2.60;67.00
51801;DHT22;37855;53.204;6.568;2023-01-28T01:52:06;2.60;67.20
51801;DHT22;37855;53.204;6.568;2023-01-28T01:54:35;2.50;67.40
51801;DHT22;37855;53.204;6.568;2023-01-28T01:57:02;2.50;67.60
51801;DHT22;37855;53.204;6.568;2023-01-28T01:59:31;2.50;67.90
51801;DHT22;37855;53.204;6.568;2023-01-28T02:02:02;2.50;68.00
51801;DHT22;37855;53.204;6.568;2023-01-28T02:04:35;2.40;67.90
51801;DHT22;37855;53.204;6.568;2023-01-28T02:07:03;2.50;68.10
51801;DHT22;37855;53.204;6.568;2023-01-28T02:09:32;2.50;67.80
51801;DHT22;37855;53.204;6.568;2023-01-28T02:12:22;2.50;67.70
51801;DHT22;37855;53.204;6.568;2023-01-28T02:14:55;2.50;67.60
51801;DHT22;37855;53.204;6.568;2023-01-28T02:17:22;2.50;67.80
51801;DHT22;37855;53.204;6.568;2023-01-28T02:20:05;2.60;67.60
51801;DHT22;37855;53.204;6.568;2023-01-28T02:31:33;2.60;68.50
51801;DHT22;37855;53.204;6.568;2023-01-28T02:34:28;2.60;68.70
51801;DHT22;37855;53.204;6.568;2023-01-28T02:37:21;2.60;68.90
51801;DHT22;37855;53.204;6.568;2023-01-28T02:40:07;2.70;68.90
51801;DHT22;37855;53.204;6.568;2023-01-28T02:42:37;2.70;69.00
51801;DHT22;37855;53.204;6.568;2023-01-28T02:45:32;2.70;69.10
51801;DHT22;37855;53.204;6.568;2023-01-28T02:48:22;2.70;69.20
51801;DHT22;37855;53.204;6.568;2023-01-28T02:51:16;2.70;69.30
51801;DHT22;37855;53.204;6.568;2023-01-28T02:53:56;2.70;69.20
51801;DHT22;37855;53.204;6.568;2023-01-28T02:56:39;2.80;69.30
51801;DHT22;37855;53.204;6.568;2023-01-28T02:59:35;2.80;69.30
51801;DHT22;37855;53.204;6.568;2023-01-28T03:02:41;2.80;69.30
51801;DHT22;37855;53.204;6.568;2023-01-28T03:07:49;2.80;69.40
51801;DHT22;37855;53.204;6.568;2023-01-28T03:10:19;2.80;69.40
51801;DHT22;37855;53.204;6.568;2023-01-28T03:12:49;2.90;69.30
51801;DHT22;37855;53.204;6.568;2023-01-28T03:15:40;2.80;69.40
51801;DHT22;37855;53.204;6.568;2023-01-28T03:18:35;2.80;69.50
51801;DHT22;37855;53.204;6.568;2023-01-28T03:21:25;2.90;69.40
51801;DHT22;37855;53.204;6.568;2023-01-28T03:24:16;2.90;69.40
51801;DHT22;37855;53.204;6.568;2023-01-28T03:30:12;2.90;69.50
51801;DHT22;37855;53.204;6.568;2023-01-28T03:32:58;2.90;69.50
51801;DHT22;37855;53.204;6.568;2023-01-28T03:35:45;2.90;69.50
51801;DHT22;37855;53.204;6.568;2023-01-28T03:38:30;2.90;69.50
51801;DHT22;37855;53.204;6.568;2023-01-28T03:41:09;2.90;69.40
51801;DHT22;37855;53.204;6.568;2023-01-28T03:43:35;2.90;69.40
51801;DHT22;37855;53.204;6.568;2023-01-28T03:46:02;2.90;69.40
51801;DHT22;37855;53.204;6.568;2023-01-28T03:48:30;2.90;69.40
51801;DHT22;37855;53.204;6.568;2023-01-28T03:50:57;2.90;69.40
51801;DHT22;37855;53.204;6.568;2023-01-28T03:53:27;2.90;69.50
51801;DHT22;37855;53.204;6.568;2023-01-28T03:55:53;2.90;69.40
51801;DHT22;37855;53.204;6.568;2023-01-28T03:58:22;2.90;69.50
51801;DHT22;37855;53.204;6.568;2023-01-28T04:01:04;2.90;69.60
51801;DHT22;37855;53.204;6.568;2023-01-28T04:03:30;2.90;69.60
51801;DHT22;37855;53.204;6.568;2023-01-28T04:06:01;2.90;69.60
51801;DHT22;37855;53.204;6.568;2023-01-28T04:08:30;2.90;69.60
51801;DHT22;37855;53.204;6.568;2023-01-28T04:10:59;2.90;69.60
51801;DHT22;37855;53.204;6.568;2023-01-28T04:13:43;2.90;69.50
51801;DHT22;37855;53.204;6.568;2023-01-28T04:16:10;2.90;69.50
51801;DHT22;37855;53.204;6.568;2023-01-28T04:18:38;2.90;69.50
51801;DHT22;37855;53.204;6.568;2023-01-28T04:21:04;2.90;69.50
51801;DHT22;37855;53.204;6.568;2023-01-28T04:23:30;2.90;69.50
51801;DHT22;37855;53.204;6.568;2023-01-28T04:25:55;2.90;69.50
51801;DHT22;37855;53.204;6.568;2023-01-28T04:28:22;2.90;69.40
51801;DHT22;37855;53.204;6.568;2023-01-28T04:30:48;2.90;69.40
51801;DHT22;37855;53.204;6.568;2023-01-28T04:33:18;2.80;69.50
51801;DHT22;37855;53.204;6.568;2023-01-28T04:35:47;2.90;69.50
51801;DHT22;37855;53.204;6.568;2023-01-28T04:38:12;2.80;69.60
51801;DHT22;37855;53.204;6.568;2023-01-28T04:40:41;2.90;69.60
51801;DHT22;37855;53.204;6.568;2023-01-28T04:43:07;2.80;69.80
51801;DHT22;37855;53.204;6.568;2023-01-28T04:45:33;2.80;69.70
51801;DHT22;37855;53.204;6.568;2023-01-28T04:47:59;2.80;69.70
51801;DHT22;37855;53.204;6.568;2023-01-28T04:50:24;2.80;69.70
51801;DHT22;37855;53.204;6.568;2023-01-28T04:52:50;2.80;69.70
51801;DHT22;37855;53.204;6.568;2023-01-28T04:55:16;2.80;69.60
51801;DHT22;37855;53.204;6.568;2023-01-28T04:57:41;2.80;69.70
51801;DHT22;37855;53.204;6.568;2023-01-28T05:00:10;2.80;69.50
51801;DHT22;37855;53.204;6.568;2023-01-28T05:02:36;2.80;69.70
51801;DHT22;37855;53.204;6.568;2023-01-28T05:05:05;2.80;69.60
51801;DHT22;37855;53.204;6.568;2023-01-28T05:07:33;2.80;69.60
51801;DHT22;37855;53.204;6.568;2023-01-28T05:09:59;2.80;69.60
51801;DHT22;37855;53.204;6.568;2023-01-28T05:12:25;2.80;69.60
51801;DHT22;37855;53.204;6.568;2023-01-28T05:14:52;2.80;69.60
51801;DHT22;37855;53.204;6.568;2023-01-28T05:17:17;2.80;69.60
51801;DHT22;37855;53.204;6.568;2023-01-28T05:19:46;2.80;69.60
51801;DHT22;37855;53.204;6.568;2023-01-28T05:22:12;2.80;69.70
51801;DHT22;37855;53.204;6.568;2023-01-28T05:24:38;2.80;69.70
51801;DHT22;37855;53.204;6.568;2023-01-28T05:27:03;2.80;69.70
51801;DHT22;37855;53.204;6.568;2023-01-28T05:29:29;2.80;69.70
51801;DHT22;37855;53.204;6.568;2023-01-28T05:31:55;2.80;69.70
51801;DHT22;37855;53.204;6.568;2023-01-28T05:34:20;2.80;69.70
51801;DHT22;37855;53.204;6.568;2023-01-28T05:36:47;2.80;69.80
51801;DHT22;37855;53.204;6.568;2023-01-28T05:39:16;2.80;69.70
51801;DHT22;37855;53.204;6.568;2023-01-28T05:41:48;2.80;69.60
51801;DHT22;37855;53.204;6.568;2023-01-28T05:44:13;2.80;69.60
51801;DHT22;37855;53.204;6.568;2023-01-28T05:46:42;2.80;69.70
51801;DHT22;37855;53.204;6.568;2023-01-28T05:49:12;2.80;69.70
51801;DHT22;37855;53.204;6.568;2023-01-28T05:51:41;2.80;69.70
51801;DHT22;37855;53.204;6.568;2023-01-28T05:54:07;2.80;69.60
51801;DHT22;37855;53.204;6.568;2023-01-28T05:56:37;2.80;69.60
51801;DHT22;37855;53.204;6.568;2023-01-28T05:59:03;2.80;69.60
51801;DHT22;37855;53.204;6.568;2023-01-28T06:01:29;2.80;69.60
51801;DHT22;37855;53.204;6.568;2023-01-28T06:03:55;2.80;69.60
51801;DHT22;37855;53.204;6.568;2023-01-28T06:06:21;2.80;69.50
51801;DHT22;37855;53.204;6.568;2023-01-28T06:08:46;2.80;69.10
51801;DHT22;37855;53.204;6.568;2023-01-28T06:11:13;2.70;69.10
51801;DHT22;37855;53.204;6.568;2023-01-28T06:13:39;2.70;69.30
51801;DHT22;37855;53.204;6.568;2023-01-28T06:16:10;2.60;69.40
51801;DHT22;37855;53.204;6.568;2023-01-28T06:18:41;2.60;69.50
51801;DHT22;37855;53.204;6.568;2023-01-28T06:21:07;2.60;69.70
51801;DHT22;37855;53.204;6.568;2023-01-28T06:23:33;2.60;69.70
51801;DHT22;37855;53.204;6.568;2023-01-28T06:25:59;2.60;69.70
51801;DHT22;37855;53.204;6.568;2023-01-28T06:28:26;2.60;69.80
51801;DHT22;37855;53.204;6.568;2023-01-28T06:30:52;2.60;69.80
51801;DHT22;37855;53.204;6.568;2023-01-28T06:33:19;2.60;69.80
51801;DHT22;37855;53.204;6.568;2023-01-28T06:35:45;2.60;69.90
51801;DHT22;37855;53.204;6.568;2023-01-28T06:38:12;2.60;69.90
51801;DHT22;37855;53.204;6.568;2023-01-28T06:40:40;2.60;69.90
51801;DHT22;37855;53.204;6.568;2023-01-28T06:43:06;2.60;69.80
51801;DHT22;37855;53.204;6.568;2023-01-28T06:45:32;2.60;69.80
51801;DHT22;37855;53.204;6.568;2023-01-28T06:47:58;2.60;70.00
51801;DHT22;37855;53.204;6.568;2023-01-28T06:50:24;2.50;70.00
51801;DHT22;37855;53.204;6.568;2023-01-28T06:52:52;2.60;70.00
51801;DHT22;37855;53.204;6.568;2023-01-28T06:55:19;2.50;70.10
51801;DHT22;37855;53.204;6.568;2023-01-28T06:57:45;2.50;70.10
51801;DHT22;37855;53.204;6.568;2023-01-28T07:00:14;2.60;70.30
51801;DHT22;37855;53.204;6.568;2023-01-28T07:02:40;2.60;70.30
51801;DHT22;37855;53.204;6.568;2023-01-28T07:05:06;2.50;70.30
51801;DHT22;37855;53.204;6.568;2023-01-28T07:07:33;2.50;70.30
51801;DHT22;37855;53.204;6.568;2023-01-28T07:09:59;2.60;70.30
51801;DHT22;37855;53.204;6.568;2023-01-28T07:12:28;2.50;70.40
51801;DHT22;37855;53.204;6.568;2023-01-28T07:14:56;2.50;70.30
51801;DHT22;37855;53.204;6.568;2023-01-28T07:17:23;2.50;70.30
51801;DHT22;37855;53.204;6.568;2023-01-28T07:19:48;2.50;70.30
51801;DHT22;37855;53.204;6.568;2023-01-28T07:22:14;2.50;70.40
51801;DHT22;37855;53.204;6.568;2023-01-28T07:24:41;2.50;70.40
51801;DHT22;37855;53.204;6.568;2023-01-28T07:27:08;2.50;70.40
51801;DHT22;37855;53.204;6.568;2023-01-28T07:29:37;2.40;70.50
51801;DHT22;37855;53.204;6.568;2023-01-28T07:32:09;2.40;70.70
51801;DHT22;37855;53.204;6.568;2023-01-28T07:34:35;2.40;70.70
51801;DHT22;37855;53.204;6.568;2023-01-28T07:37:04;2.40;70.80
51801;DHT22;37855;53.204;6.568;2023-01-28T07:39:35;2.30;70.80
51801;DHT22;37855;53.204;6.568;2023-01-28T07:42:01;2.30;70.90
51801;DHT22;37855;53.204;6.568;2023-01-28T07:44:26;2.30;70.90
51801;DHT22;37855;53.204;6.568;2023-01-28T07:46:52;2.30;71.00
51801;DHT22;37855;53.204;6.568;2023-01-28T07:49:18;2.30;71.00
51801;DHT22;37855;53.204;6.568;2023-01-28T07:51:44;2.20;71.00
51801;DHT22;37855;53.204;6.568;2023-01-28T07:54:12;2.20;71.10
51801;DHT22;37855;53.204;6.568;2023-01-28T07:56:37;2.20;71.10
51801;DHT22;37855;53.204;6.568;2023-01-28T07:59:03;2.30;71.10
51801;DHT22;37855;53.204;6.568;2023-01-28T08:01:29;2.30;71.00
51801;DHT22;37855;53.204;6.568;2023-01-28T08:03:57;2.30;71.00
51801;DHT22;37855;53.204;6.568;2023-01-28T08:06:23;2.30;70.90
51801;DHT22;37855;53.204;6.568;2023-01-28T08:08:49;2.30;70.90
51801;DHT22;37855;53.204;6.568;2023-01-28T08:11:14;2.30;70.90
51801;DHT22;37855;53.204;6.568;2023-01-28T08:13:40;2.40;70.80
51801;DHT22;37855;53.204;6.568;2023-01-28T08:16:06;2.40;70.60
51801;DHT22;37855;53.204;6.568;2023-01-28T08:18:44;2.40;70.40
51801;DHT22;37855;53.204;6.568;2023-01-28T08:21:09;2.40;70.20
51801;DHT22;37855;53.204;6.568;2023-01-28T08:23:35;2.50;70.00
51801;DHT22;37855;53.204;6.568;2023-01-28T08:26:08;2.60;69.90
51801;DHT22;37855;53.204;6.568;2023-01-28T08:28:33;2.60;69.80
51801;DHT22;37855;53.204;6.568;2023-01-28T08:31:00;2.60;69.70
51801;DHT22;37855;53.204;6.568;2023-01-28T08:33:29;2.70;69.60
51801;DHT22;37855;53.204;6.568;2023-01-28T08:35:54;2.70;69.50
51801;DHT22;37855;53.204;6.568;2023-01-28T08:38:20;2.70;69.50
51801;DHT22;37855;53.204;6.568;2023-01-28T08:40:46;2.70;69.30
51801;DHT22;37855;53.204;6.568;2023-01-28T08:43:12;2.60;69.40
51801;DHT22;37855;53.204;6.568;2023-01-28T08:45:41;2.60;69.50
51801;DHT22;37855;53.204;6.568;2023-01-28T08:48:09;2.60;69.70
51801;DHT22;37855;53.204;6.568;2023-01-28T08:50:39;2.60;69.70
51801;DHT22;37855;53.204;6.568;2023-01-28T08:53:18;2.60;69.50
51801;DHT22;37855;53.204;6.568;2023-01-28T08:55:44;2.60;69.60
51801;DHT22;37855;53.204;6.568;2023-01-28T08:58:13;2.60;69.60
51801;DHT22;37855;53.204;6.568;2023-01-28T09:00:39;2.60;69.60
51801;DHT22;37855;53.204;6.568;2023-01-28T09:03:05;2.60;69.60
51801;DHT22;37855;53.204;6.568;2023-01-28T09:05:32;2.70;69.50
51801;DHT22;37855;53.204;6.568;2023-01-28T09:08:08;2.70;69.30
51801;DHT22;37855;53.204;6.568;2023-01-28T09:10:34;2.80;69.20
51801;DHT22;37855;53.204;6.568;2023-01-28T09:13:08;2.80;69.30
51801;DHT22;37855;53.204;6.568;2023-01-28T09:15:34;2.80;69.30
51801;DHT22;37855;53.204;6.568;2023-01-28T09:18:00;2.90;69.20
51801;DHT22;37855;53.204;6.568;2023-01-28T09:20:30;3.00;69.00
51801;DHT22;37855;53.204;6.568;2023-01-28T09:23:00;3.00;68.70
51801;DHT22;37855;53.204;6.568;2023-01-28T09:25:29;3.10;68.40
51801;DHT22;37855;53.204;6.568;2023-01-28T09:27:54;3.00;68.50
51801;DHT22;37855;53.204;6.568;2023-01-28T09:30:25;3.10;68.30
51801;DHT22;37855;53.204;6.568;2023-01-28T09:32:52;3.20;68.00
51801;DHT22;37855;53.204;6.568;2023-01-28T09:35:21;3.30;67.70
51801;DHT22;37855;53.204;6.568;2023-01-28T09:37:49;3.40;67.60
51801;DHT22;37855;53.204;6.568;2023-01-28T09:40:20;3.40;67.60
51801;DHT22;37855;53.204;6.568;2023-01-28T09:45:36;3.50;67.60
51801;DHT22;37855;53.204;6.568;2023-01-28T09:48:07;3.50;67.60
51801;DHT22;37855;53.204;6.568;2023-01-28T09:50:37;3.50;67.80
51801;DHT22;37855;53.204;6.568;2023-01-28T09:53:12;3.50;67.90
51801;DHT22;37855;53.204;6.568;2023-01-28T09:55:52;3.50;67.70
51801;DHT22;37855;53.204;6.568;2023-01-28T09:58:19;3.50;67.60
51801;DHT22;37855;53.204;6.568;2023-01-28T10:17:39;3.80;67.60
51801;DHT22;37855;53.204;6.568;2023-01-28T10:22:53;3.80;67.30
51801;DHT22;37855;53.204;6.568;2023-01-28T10:25:23;3.90;67.30
51801;DHT22;37855;53.204;6.568;2023-01-28T10:27:50;3.90;67.30
51801;DHT22;37855;53.204;6.568;2023-01-28T10:33:00;4.10;67.30
51801;DHT22;37855;53.204;6.568;2023-01-28T10:35:30;4.20;67.30
51801;DHT22;37855;53.204;6.568;2023-01-28T10:38:01;4.30;67.20
51801;DHT22;37855;53.204;6.568;2023-01-28T10:40:31;4.30;66.90
51801;DHT22;37855;53.204;6.568;2023-01-28T10:42:57;4.40;67.10
51801;DHT22;37855;53.204;6.568;2023-01-28T10:45:27;4.40;67.10
51801;DHT22;37855;53.204;6.568;2023-01-28T10:47:55;4.50;67.00
51801;DHT22;37855;53.204;6.568;2023-01-28T10:50:26;4.60;66.80
51801;DHT22;37855;53.204;6.568;2023-01-28T10:53:01;4.60;66.80
51801;DHT22;37855;53.204;6.568;2023-01-28T10:55:31;4.60;66.50
51801;DHT22;37855;53.204;6.568;2023-01-28T10:57:58;4.70;66.50
51801;DHT22;37855;53.204;6.568;2023-01-28T11:00:34;4.70;66.60
51801;DHT22;37855;53.204;6.568;2023-01-28T11:03:01;4.70;66.50
51801;DHT22;37855;53.204;6.568;2023-01-28T11:05:28;4.70;66.30
51801;DHT22;37855;53.204;6.568;2023-01-28T11:08:15;4.70;66.00
51801;DHT22;37855;53.204;6.568;2023-01-28T11:10:41;4.70;66.00
51801;DHT22;37855;53.204;6.568;2023-01-28T11:13:25;4.70;66.20
51801;DHT22;37855;53.204;6.568;2023-01-28T11:16:02;4.80;66.20
51801;DHT22;37855;53.204;6.568;2023-01-28T11:18:34;4.70;65.80
51801;DHT22;37855;53.204;6.568;2023-01-28T11:21:03;4.70;66.20
51801;DHT22;37855;53.204;6.568;2023-01-28T11:23:36;4.70;66.10
51801;DHT22;37855;53.204;6.568;2023-01-28T11:26:21;4.80;65.80
51801;DHT22;37855;53.204;6.568;2023-01-28T11:28:48;4.80;65.80
51801;DHT22;37855;53.204;6.568;2023-01-28T11:31:16;4.80;65.80
51801;DHT22;37855;53.204;6.568;2023-01-28T11:36:28;4.70;66.30
51801;DHT22;37855;53.204;6.568;2023-01-28T11:39:13;4.70;66.30
51801;DHT22;37855;53.204;6.568;2023-01-28T11:41:40;4.70;66.00
51801;DHT22;37855;53.204;6.568;2023-01-28T12:09:07;4.80;66.10
51801;DHT22;37855;53.204;6.568;2023-01-28T12:17:44;4.80;66.30
51801;DHT22;37855;53.204;6.568;2023-01-28T12:34:26;4.80;66.40
51801;DHT22;37855;53.204;6.568;2023-01-28T12:43:20;4.80;66.60
51801;DHT22;37855;53.204;6.568;2023-01-28T12:45:53;4.90;66.50
51801;DHT22;37855;53.204;6.568;2023-01-28T12:48:33;4.90;66.60
51801;DHT22;37855;53.204;6.568;2023-01-28T12:51:20;4.90;66.50
51801;DHT22;37855;53.204;6.568;2023-01-28T12:54:08;5.00;66.40
51801;DHT22;37855;53.204;6.568;2023-01-28T12:56:43;5.00;66.20
51801;DHT22;37855;53.204;6.568;2023-01-28T12:59:15;5.00;66.10
51801;DHT22;37855;53.204;6.568;2023-01-28T13:01:47;5.00;66.40
51801;DHT22;37855;53.204;6.568;2023-01-28T13:04:33;5.10;66.20
51801;DHT22;37855;53.204;6.568;2023-01-28T13:10:05;5.10;66.30
51801;DHT22;37855;53.204;6.568;2023-01-28T13:12:39;5.20;66.30
51801;DHT22;37855;53.204;6.568;2023-01-28T13:15:10;5.20;66.40
51801;DHT22;37855;53.204;6.568;2023-01-28T13:17:36;5.30;66.10
51801;DHT22;37855;53.204;6.568;2023-01-28T13:20:13;5.40;65.80
51801;DHT22;37855;53.204;6.568;2023-01-28T13:22:39;5.50;66.40
51801;DHT22;37855;53.204;6.568;2023-01-28T13:25:25;5.60;65.60
51801;DHT22;37855;53.204;6.568;2023-01-28T13:28:04;5.60;65.60
51801;DHT22;37855;53.204;6.568;2023-01-28T13:30:47;5.50;65.70
51801;DHT22;37855;53.204;6.568;2023-01-28T13:33:39;5.50;65.50
51801;DHT22;37855;53.204;6.568;2023-01-28T13:39:00;5.40;65.60
51801;DHT22;37855;53.204;6.568;2023-01-28T13:41:39;5.40;65.60
51801;DHT22;37855;53.204;6.568;2023-01-28T13:44:27;5.40;65.80
51801;DHT22;37855;53.204;6.568;2023-01-28T13:46:59;5.30;65.90
51801;DHT22;37855;53.204;6.568;2023-01-28T13:49:33;5.30;66.10
51801;DHT22;37855;53.204;6.568;2023-01-28T13:54:50;5.30;66.40
51801;DHT22;37855;53.204;6.568;2023-01-28T14:09:06;5.20;67.00
51801;DHT22;37855;53.204;6.568;2023-01-28T14:19:56;5.20;67.40
51801;DHT22;37855;53.204;6.568;2023-01-28T14:22:23;5.20;67.60
51801;DHT22;37855;53.204;6.568;2023-01-28T14:24:49;5.20;67.70
51801;DHT22;37855;53.204;6.568;2023-01-28T14:27:21;5.20;67.70
51801;DHT22;37855;53.204;6.568;2023-01-28T14:32:54;5.20;67.80
51801;DHT22;37855;53.204;6.568;2023-01-28T14:35:29;5.20;67.90
51801;DHT22;37855;53.204;6.568;2023-01-28T14:37:56;5.20;67.80
51801;DHT22;37855;53.204;6.568;2023-01-28T14:40:24;5.20;67.90
51801;DHT22;37855;53.204;6.568;2023-01-28T14:42:53;5.10;68.00
51801;DHT22;37855;53.204;6.568;2023-01-28T14:45:32;5.10;68.20
51801;DHT22;37855;53.204;6.568;2023-01-28T14:51:09;5.10;68.40
51801;DHT22;37855;53.204;6.568;2023-01-28T14:59:44;5.20;68.80
51801;DHT22;37855;53.204;6.568;2023-01-28T15:02:23;5.20;68.90
51801;DHT22;37855;53.204;6.568;2023-01-28T15:04:50;5.20;68.90
51801;DHT22;37855;53.204;6.568;2023-01-28T15:07:26;5.50;70.90
51801;DHT22;37855;53.204;6.568;2023-01-28T15:10:05;5.80;69.30
51801;DHT22;37855;53.204;6.568;2023-01-28T15:12:37;5.90;68.70
51801;DHT22;37855;53.204;6.568;2023-01-28T15:15:17;5.90;68.30
51801;DHT22;37855;53.204;6.568;2023-01-28T15:17:45;5.80;68.30
51801;DHT22;37855;53.204;6.568;2023-01-28T15:20:22;5.70;68.20
51801;DHT22;37855;53.204;6.568;2023-01-28T15:22:50;5.50;68.40
51801;DHT22;37855;53.204;6.568;2023-01-28T15:25:18;5.40;68.60
51801;DHT22;37855;53.204;6.568;2023-01-28T15:27:44;5.30;68.90
51801;DHT22;37855;53.204;6.568;2023-01-28T15:30:24;5.30;68.90
51801;DHT22;37855;53.204;6.568;2023-01-28T15:33:05;5.20;69.10
51801;DHT22;37855;53.204;6.568;2023-01-28T15:35:35;5.10;69.20
51801;DHT22;37855;53.204;6.568;2023-01-28T15:38:01;5.10;69.30
51801;DHT22;37855;53.204;6.568;2023-01-28T15:40:28;5.00;69.50
51801;DHT22;37855;53.204;6.568;2023-01-28T15:42:55;5.00;69.60
51801;DHT22;37855;53.204;6.568;2023-01-28T15:45:24;4.90;69.70
51801;DHT22;37855;53.204;6.568;2023-01-28T15:47:52;4.90;69.90
51801;DHT22;37855;53.204;6.568;2023-01-28T15:50:23;4.80;70.00
51801;DHT22;37855;53.204;6.568;2023-01-28T15:52:50;4.80;70.20
51801;DHT22;37855;53.204;6.568;2023-01-28T15:57:54;4.70;70.20
51801;DHT22;37855;53.204;6.568;2023-01-28T16:00:24;4.80;70.40
51801;DHT22;37855;53.204;6.568;2023-01-28T16:02:51;4.70;70.40
51801;DHT22;37855;53.204;6.568;2023-01-28T16:05:31;4.70;70.50
51801;DHT22;37855;53.204;6.568;2023-01-28T16:08:02;4.70;70.50
51801;DHT22;37855;53.204;6.568;2023-01-28T16:10:32;4.70;70.60
51801;DHT22;37855;53.204;6.568;2023-01-28T16:13:11;4.60;70.70
51801;DHT22;37855;53.204;6.568;2023-01-28T16:15:43;4.60;70.90
51801;DHT22;37855;53.204;6.568;2023-01-28T16:20:47;4.60;70.90
51801;DHT22;37855;53.204;6.568;2023-01-28T16:23:26;4.60;71.00
51801;DHT22;37855;53.204;6.568;2023-01-28T16:26:04;4.50;71.10
51801;DHT22;37855;53.204;6.568;2023-01-28T16:28:32;4.50;71.10
51801;DHT22;37855;53.204;6.568;2023-01-28T16:30:58;4.50;71.20
51801;DHT22;37855;53.204;6.568;2023-01-28T16:33:25;4.50;71.10
51801;DHT22;37855;53.204;6.568;2023-01-28T16:35:51;4.50;71.20
51801;DHT22;37855;53.204;6.568;2023-01-28T16:38:17;4.50;71.30
51801;DHT22;37855;53.204;6.568;2023-01-28T16:40:47;4.50;71.10
51801;DHT22;37855;53.204;6.568;2023-01-28T16:43:14;4.50;71.30
51801;DHT22;37855;53.204;6.568;2023-01-28T16:45:41;4.50;71.20
51801;DHT22;37855;53.204;6.568;2023-01-28T16:48:09;4.50;71.30
51801;DHT22;37855;53.204;6.568;2023-01-28T16:50:38;4.50;71.40
51801;DHT22;37855;53.204;6.568;2023-01-28T16:53:09;4.50;71.40
51801;DHT22;37855;53.204;6.568;2023-01-28T16:55:36;4.50;71.40
51801;DHT22;37855;53.204;6.568;2023-01-28T16:58:02;4.50;71.50
51801;DHT22;37855;53.204;6.568;2023-01-28T17:00:27;4.40;71.50
51801;DHT22;37855;53.204;6.568;2023-01-28T17:02:55;4.50;71.50
51801;DHT22;37855;53.204;6.568;2023-01-28T17:05:23;4.40;71.60
51801;DHT22;37855;53.204;6.568;2023-01-28T17:07:51;4.40;71.60
51801;DHT22;37855;53.204;6.568;2023-01-28T17:10:20;4.50;71.70
51801;DHT22;37855;53.204;6.568;2023-01-28T17:12:47;4.40;71.60
51801;DHT22;37855;53.204;6.568;2023-01-28T17:15:13;4.50;71.70
51801;DHT22;37855;53.204;6.568;2023-01-28T17:17:39;4.50;71.80
51801;DHT22;37855;53.204;6.568;2023-01-28T17:20:05;4.40;71.70
51801;DHT22;37855;53.204;6.568;2023-01-28T17:22:31;4.50;71.80
51801;DHT22;37855;53.204;6.568;2023-01-28T17:24:56;4.50;71.80
51801;DHT22;37855;53.204;6.568;2023-01-28T17:27:22;4.50;71.90
51801;DHT22;37855;53.204;6.568;2023-01-28T17:29:48;4.40;71.90
51801;DHT22;37855;53.204;6.568;2023-01-28T17:32:16;4.40;71.90
51801;DHT22;37855;53.204;6.568;2023-01-28T17:34:42;4.50;72.00
51801;DHT22;37855;53.204;6.568;2023-01-28T17:37:07;4.40;72.10
51801;DHT22;37855;53.204;6.568;2023-01-28T17:39:35;4.40;72.10
51801;DHT22;37855;53.204;6.568;2023-01-28T17:42:03;4.40;72.30
51801;DHT22;37855;53.204;6.568;2023-01-28T17:44:29;4.40;72.20
51801;DHT22;37855;53.204;6.568;2023-01-28T17:46:55;4.40;72.30
51801;DHT22;37855;53.204;6.568;2023-01-28T17:49:21;4.40;72.30
51801;DHT22;37855;53.204;6.568;2023-01-28T17:51:46;4.50;72.20
51801;DHT22;37855;53.204;6.568;2023-01-28T17:54:13;4.40;72.40
51801;DHT22;37855;53.204;6.568;2023-01-28T17:56:44;4.40;72.30
51801;DHT22;37855;53.204;6.568;2023-01-28T17:59:11;4.40;72.60
51801;DHT22;37855;53.204;6.568;2023-01-28T18:01:38;4.40;72.60
51801;DHT22;37855;53.204;6.568;2023-01-28T18:04:05;4.40;72.80
51801;DHT22;37855;53.204;6.568;2023-01-28T18:06:33;4.40;72.80
51801;DHT22;37855;53.204;6.568;2023-01-28T18:09:01;4.40;73.00
51801;DHT22;37855;53.204;6.568;2023-01-28T18:11:27;4.40;72.90
51801;DHT22;37855;53.204;6.568;2023-01-28T18:13:53;4.40;72.90
51801;DHT22;37855;53.204;6.568;2023-01-28T18:16:19;4.40;73.00
51801;DHT22;37855;53.204;6.568;2023-01-28T18:18:48;4.40;72.90
51801;DHT22;37855;53.204;6.568;2023-01-28T18:21:32;4.40;72.80
51801;DHT22;37855;53.204;6.568;2023-01-28T18:23:59;4.40;72.80